CFB Cold Lake

CYOD | YOD

Cold Lake , Alberta , Canada

Wednesday, October 23rd, 2019 | 23:32

Weather

CYOD 240500Z 22005KT 15SM SCT037 BKN250 M00/M01 A3023 RMK SC3CI4 SLP265

Charts

No Charts Available

Gates

49 Available

Runways

3 Available

Events

No events for this airport


New event